VKG132 EKCH-LEPA
Flight info
| Callsign | VKG132 |
|---|---|
| Flight time | 2h 53m |
| Altitude | 40000 |
| Route | NEXEN T503 GIMRU DCT MICOS DCT WRB DCT XAROL DCT BOMBI DCT GIGET DCT ABUKA DCT KRH DCT NATOR/N0464F390 DCT LUTIX DCT BENOT DCT NEMOS DCT GEVEA DCT INCUS DCT BALSI DCT RETNO DCT TUPOX DCT MTG DCT DIVKO DCT VATIR N852 VERSO L129 LUNIK |
| Aircraft | A339/H-SADE1E2E3GHIJ1J3J5M1P2RWXY/LB2D1 |
Departure
| Time | 2026-04-24 16:01 |
|---|---|
| Airport | Copenhagen Kastrup Airport (EKCH) |
Arrival
| Time | 2026-04-24 18:54 |
|---|---|
| Airport | Palma de Mallorca Airport (LEPA) |
| Time | Latitude | Longitude | Altitude | Speed | Heading |
|---|---|---|---|---|---|
| 2026-04-24 15:34 | 55.62557 | 12.64889 | 30 ft | 0 kts | 88° |
| 2026-04-24 15:47 | 55.62557 | 12.64880 | 30 ft | 2 kts | 89° |
| 2026-04-24 15:48 | 55.62557 | 12.64848 | 30 ft | 2 kts | 89° |
| 2026-04-24 15:48 | 55.62556 | 12.64816 | 29 ft | 3 kts | 91° |
| 2026-04-24 15:48 | 55.62557 | 12.64777 | 28 ft | 3 kts | 128° |
| 2026-04-24 15:48 | 55.62569 | 12.64754 | 26 ft | 1 kts | 190° |
| 2026-04-24 15:49 | 55.62571 | 12.64754 | 26 ft | 0 kts | 192° |
| 2026-04-24 15:49 | 55.62588 | 12.64764 | 27 ft | 0 kts | 176° |
| 2026-04-24 15:53 | 55.62585 | 12.64765 | 26 ft | 1 kts | 176° |
| 2026-04-24 15:53 | 55.62570 | 12.64767 | 27 ft | 3 kts | 176° |
| 2026-04-24 15:53 | 55.62540 | 12.64771 | 30 ft | 5 kts | 176° |
| 2026-04-24 15:54 | 55.62486 | 12.64775 | 30 ft | 10 kts | 178° |
| 2026-04-24 15:54 | 55.62404 | 12.64780 | 30 ft | 13 kts | 178° |
| 2026-04-24 15:54 | 55.62308 | 12.64787 | 30 ft | 15 kts | 178° |
| 2026-04-24 15:54 | 55.62202 | 12.64762 | 30 ft | 16 kts | 204° |
| 2026-04-24 15:55 | 55.62171 | 12.64726 | 30 ft | 1 kts | 214° |
| 2026-04-24 15:55 | 55.62139 | 12.64688 | 30 ft | 15 kts | 214° |
| 2026-04-24 15:55 | 55.62029 | 12.64560 | 29 ft | 22 kts | 211° |
| 2026-04-24 15:55 | 55.61879 | 12.64513 | 30 ft | 22 kts | 167° |
| 2026-04-24 15:56 | 55.61731 | 12.64561 | 30 ft | 18 kts | 173° |
| 2026-04-24 15:56 | 55.61612 | 12.64491 | 30 ft | 18 kts | 211° |
| 2026-04-24 15:56 | 55.61504 | 12.64368 | 30 ft | 19 kts | 214° |
| 2026-04-24 15:56 | 55.61390 | 12.64234 | 30 ft | 20 kts | 211° |
| 2026-04-24 15:57 | 55.61268 | 12.64096 | 30 ft | 21 kts | 213° |
| 2026-04-24 15:57 | 55.61145 | 12.63950 | 30 ft | 21 kts | 213° |
| 2026-04-24 15:57 | 55.61061 | 12.63854 | 28 ft | 22 kts | 213° |
| 2026-04-24 15:57 | 55.60888 | 12.63660 | 30 ft | 22 kts | 214° |
| 2026-04-24 15:58 | 55.60757 | 12.63508 | 29 ft | 23 kts | 213° |
| 2026-04-24 15:58 | 55.60627 | 12.63343 | 29 ft | 22 kts | 220° |
| 2026-04-24 15:58 | 55.60517 | 12.63173 | 30 ft | 18 kts | 221° |
| 2026-04-24 15:58 | 55.60433 | 12.63122 | 28 ft | 12 kts | 166° |
| 2026-04-24 15:59 | 55.60369 | 12.63230 | 30 ft | 13 kts | 130° |
| 2026-04-24 15:59 | 55.60344 | 12.63313 | 32 ft | 5 kts | 103° |
| 2026-04-24 15:59 | 55.60358 | 12.63373 | 32 ft | 5 kts | 53° |
| 2026-04-24 15:59 | 55.60379 | 12.63405 | 31 ft | 0 kts | 42° |
| 2026-04-24 16:00 | 55.60384 | 12.63413 | 31 ft | 0 kts | 42° |
| 2026-04-24 16:00 | 55.60507 | 12.63606 | 30 ft | 67 kts | 41° |
| 2026-04-24 16:00 | 55.61076 | 12.64481 | 28 ft | 147 kts | 41° |
| 2026-04-24 16:00 | 55.61960 | 12.65883 | 376 ft | 179 kts | 36° |
| 2026-04-24 16:01 | 55.62884 | 12.67300 | 1390 ft | 172 kts | 36° |
| 2026-04-24 16:01 | 55.63785 | 12.68704 | 2304 ft | 178 kts | 34° |
| 2026-04-24 16:01 | 55.64760 | 12.70224 | 2868 ft | 197 kts | 34° |
| 2026-04-24 16:01 | 55.65849 | 12.71897 | 3439 ft | 216 kts | 33° |
| 2026-04-24 16:02 | 55.67059 | 12.73681 | 3889 ft | 236 kts | 33° |
| 2026-04-24 16:02 | 55.68375 | 12.75604 | 4332 ft | 252 kts | 34° |
| 2026-04-24 16:02 | 55.69675 | 12.77763 | 4971 ft | 264 kts | 47° |
| 2026-04-24 16:02 | 55.70442 | 12.80776 | 5689 ft | 277 kts | 73° |
| 2026-04-24 16:03 | 55.70410 | 12.84244 | 6406 ft | 290 kts | 100° |
| 2026-04-24 16:03 | 55.69542 | 12.87513 | 7056 ft | 300 kts | 126° |
| 2026-04-24 16:03 | 55.67961 | 12.89946 | 7704 ft | 305 kts | 152° |
| 2026-04-24 16:03 | 55.65956 | 12.91149 | 8390 ft | 306 kts | 172° |
| 2026-04-24 16:04 | 55.63850 | 12.91809 | 9060 ft | 310 kts | 173° |
| 2026-04-24 16:04 | 55.61709 | 12.92233 | 9717 ft | 310 kts | 187° |
| 2026-04-24 16:04 | 55.59649 | 12.91319 | 10330 ft | 306 kts | 211° |
| 2026-04-24 16:04 | 55.57918 | 12.89087 | 10551 ft | 315 kts | 231° |
| 2026-04-24 16:05 | 55.54793 | 12.83128 | 11223 ft | 340 kts | 233° |
| 2026-04-24 16:05 | 55.53201 | 12.80109 | 11901 ft | 341 kts | 232° |
| 2026-04-24 16:06 | 55.50021 | 12.73849 | 13178 ft | 344 kts | 236° |
| 2026-04-24 16:06 | 55.48485 | 12.70603 | 13823 ft | 346 kts | 236° |
| 2026-04-24 16:06 | 55.45354 | 12.64041 | 14967 ft | 351 kts | 236° |
| 2026-04-24 16:07 | 55.43771 | 12.60742 | 15528 ft | 353 kts | 236° |
| 2026-04-24 16:07 | 55.42181 | 12.57426 | 16090 ft | 356 kts | 236° |
| 2026-04-24 16:07 | 55.38962 | 12.50717 | 17201 ft | 361 kts | 236° |
| 2026-04-24 16:08 | 55.37356 | 12.47375 | 17743 ft | 364 kts | 236° |
| 2026-04-24 16:08 | 55.34061 | 12.40537 | 18782 ft | 369 kts | 236° |
| 2026-04-24 16:09 | 55.30712 | 12.33612 | 19733 ft | 375 kts | 236° |
| 2026-04-24 16:09 | 55.29017 | 12.30111 | 20224 ft | 378 kts | 236° |
| 2026-04-24 16:09 | 55.27864 | 12.27735 | 20555 ft | 379 kts | 236° |
| 2026-04-24 16:09 | 55.25584 | 12.23039 | 21198 ft | 383 kts | 236° |
| 2026-04-24 16:10 | 55.20230 | 12.12399 | 22638 ft | 397 kts | 230° |
| 2026-04-24 16:11 | 55.15770 | 12.06376 | 23492 ft | 411 kts | 221° |
| 2026-04-24 16:11 | 55.14200 | 12.04395 | 23810 ft | 413 kts | 222° |
| 2026-04-24 16:11 | 55.11908 | 12.01492 | 24304 ft | 413 kts | 222° |
| 2026-04-24 16:12 | 55.07238 | 11.95553 | 25220 ft | 417 kts | 222° |
| 2026-04-24 16:12 | 55.04912 | 11.92591 | 25683 ft | 418 kts | 222° |
| 2026-04-24 16:12 | 55.00190 | 11.86596 | 26566 ft | 422 kts | 222° |
| 2026-04-24 16:13 | 54.97812 | 11.83582 | 27023 ft | 423 kts | 222° |
| 2026-04-24 16:13 | 54.93032 | 11.77542 | 27922 ft | 425 kts | 222° |
| 2026-04-24 16:14 | 54.88232 | 11.71496 | 28705 ft | 429 kts | 222° |
| 2026-04-24 16:14 | 54.85806 | 11.68446 | 29119 ft | 431 kts | 222° |
| 2026-04-24 16:14 | 54.80928 | 11.62328 | 29880 ft | 435 kts | 222° |
| 2026-04-24 16:15 | 54.79302 | 11.60294 | 30146 ft | 436 kts | 222° |
| 2026-04-24 16:15 | 54.73519 | 11.53073 | 30867 ft | 441 kts | 221° |
| 2026-04-24 16:16 | 54.68533 | 11.46871 | 31353 ft | 441 kts | 221° |
| 2026-04-24 16:16 | 54.66031 | 11.43764 | 31606 ft | 445 kts | 221° |
| 2026-04-24 16:17 | 54.58449 | 11.34378 | 32375 ft | 449 kts | 221° |
| 2026-04-24 16:17 | 54.53351 | 11.28105 | 32900 ft | 452 kts | 220° |
| 2026-04-24 16:18 | 54.48198 | 11.21844 | 33404 ft | 454 kts | 220° |
| 2026-04-24 16:18 | 54.43044 | 11.15598 | 33982 ft | 453 kts | 220° |
| 2026-04-24 16:18 | 54.40467 | 11.12482 | 34203 ft | 452 kts | 220° |
| 2026-04-24 16:19 | 54.35328 | 11.06277 | 34698 ft | 451 kts | 220° |
| 2026-04-24 16:19 | 54.32763 | 11.03191 | 34945 ft | 450 kts | 219° |
| 2026-04-24 16:20 | 54.27228 | 10.98023 | 35442 ft | 457 kts | 207° |
| 2026-04-24 16:20 | 54.21371 | 10.93868 | 35923 ft | 455 kts | 208° |
| 2026-04-24 16:20 | 54.18455 | 10.91779 | 36172 ft | 454 kts | 208° |
| 2026-04-24 16:21 | 54.12657 | 10.87605 | 36702 ft | 451 kts | 208° |
| 2026-04-24 16:21 | 54.09766 | 10.85525 | 36969 ft | 450 kts | 208° |
| 2026-04-24 16:21 | 54.06876 | 10.83448 | 37102 ft | 452 kts | 208° |
| 2026-04-24 16:22 | 54.03967 | 10.81361 | 37111 ft | 454 kts | 208° |
| 2026-04-24 16:22 | 53.95242 | 10.75130 | 37126 ft | 453 kts | 208° |
| 2026-04-24 16:23 | 53.89459 | 10.71014 | 37130 ft | 453 kts | 208° |
| 2026-04-24 16:24 | 53.80733 | 10.64828 | 37130 ft | 453 kts | 208° |
| 2026-04-24 16:24 | 53.74873 | 10.60691 | 37132 ft | 452 kts | 208° |
| 2026-04-24 16:25 | 53.69118 | 10.56639 | 37432 ft | 450 kts | 208° |
| 2026-04-24 16:25 | 53.66223 | 10.54604 | 37545 ft | 452 kts | 208° |
| 2026-04-24 16:25 | 53.63279 | 10.52537 | 37654 ft | 453 kts | 207° |
| 2026-04-24 16:26 | 53.57455 | 10.48459 | 37975 ft | 453 kts | 207° |
| 2026-04-24 16:26 | 53.54541 | 10.46425 | 38138 ft | 453 kts | 207° |
| 2026-04-24 16:26 | 53.48728 | 10.42376 | 38507 ft | 452 kts | 207° |
| 2026-04-24 16:27 | 53.45827 | 10.40358 | 38653 ft | 452 kts | 207° |
| 2026-04-24 16:27 | 53.42929 | 10.38346 | 38798 ft | 452 kts | 207° |
| 2026-04-24 16:27 | 53.40021 | 10.36330 | 38922 ft | 452 kts | 207° |
| 2026-04-24 16:27 | 53.37110 | 10.34315 | 39041 ft | 452 kts | 207° |
| 2026-04-24 16:28 | 53.34198 | 10.32303 | 39141 ft | 453 kts | 207° |
| 2026-04-24 16:28 | 53.31323 | 10.30319 | 39251 ft | 453 kts | 207° |
| 2026-04-24 16:28 | 53.25453 | 10.26277 | 39440 ft | 454 kts | 207° |
| 2026-04-24 16:29 | 53.22569 | 10.24296 | 39547 ft | 454 kts | 207° |
| 2026-04-24 16:29 | 53.19639 | 10.22286 | 39656 ft | 455 kts | 207° |
| 2026-04-24 16:29 | 53.13783 | 10.18277 | 39852 ft | 455 kts | 207° |
| 2026-04-24 16:30 | 53.07916 | 10.14272 | 40067 ft | 456 kts | 207° |
| 2026-04-24 16:30 | 53.02041 | 10.10274 | 40180 ft | 456 kts | 207° |
| 2026-04-24 16:31 | 52.96169 | 10.06292 | 40157 ft | 456 kts | 207° |
| 2026-04-24 16:31 | 52.90304 | 10.02324 | 40157 ft | 456 kts | 207° |
| 2026-04-24 16:32 | 52.84425 | 9.98358 | 40159 ft | 456 kts | 207° |
| 2026-04-24 16:32 | 52.78562 | 9.94417 | 40158 ft | 453 kts | 207° |
| 2026-04-24 16:33 | 52.72733 | 9.90508 | 40142 ft | 451 kts | 207° |
| 2026-04-24 16:33 | 52.66918 | 9.86619 | 40134 ft | 451 kts | 207° |
| 2026-04-24 16:34 | 52.61095 | 9.82734 | 40157 ft | 455 kts | 207° |
| 2026-04-24 16:34 | 52.55239 | 9.78842 | 40157 ft | 452 kts | 207° |
| 2026-04-24 16:35 | 52.49399 | 9.74972 | 40157 ft | 453 kts | 207° |
| 2026-04-24 16:35 | 52.43552 | 9.71106 | 40157 ft | 453 kts | 206° |
| 2026-04-24 16:36 | 52.37706 | 9.67253 | 40157 ft | 453 kts | 206° |
| 2026-04-24 16:36 | 52.31938 | 9.63465 | 40157 ft | 449 kts | 206° |
| 2026-04-24 16:37 | 52.26114 | 9.59646 | 40156 ft | 450 kts | 206° |
| 2026-04-24 16:37 | 52.20305 | 9.55849 | 40155 ft | 450 kts | 206° |
| 2026-04-24 16:38 | 52.14483 | 9.52055 | 40154 ft | 450 kts | 206° |
| 2026-04-24 16:38 | 52.08684 | 9.48288 | 40156 ft | 447 kts | 206° |
| 2026-04-24 16:39 | 52.02899 | 9.44538 | 40155 ft | 448 kts | 206° |
| 2026-04-24 16:39 | 51.97098 | 9.40790 | 40156 ft | 448 kts | 206° |
| 2026-04-24 16:40 | 51.91302 | 9.37055 | 40156 ft | 448 kts | 206° |
| 2026-04-24 16:40 | 51.85523 | 9.33340 | 40153 ft | 446 kts | 206° |
| 2026-04-24 16:41 | 51.79760 | 9.29649 | 40141 ft | 445 kts | 206° |
| 2026-04-24 16:41 | 51.74007 | 9.25972 | 40137 ft | 444 kts | 206° |
| 2026-04-24 16:42 | 51.68261 | 9.22310 | 40124 ft | 444 kts | 206° |
| 2026-04-24 16:42 | 51.62518 | 9.18658 | 40149 ft | 443 kts | 206° |
| 2026-04-24 16:43 | 51.56823 | 9.15047 | 40143 ft | 443 kts | 206° |
| 2026-04-24 16:43 | 51.51064 | 9.11501 | 40148 ft | 445 kts | 202° |
| 2026-04-24 16:44 | 51.45013 | 9.09159 | 40138 ft | 449 kts | 196° |
| 2026-04-24 16:44 | 51.38896 | 9.07117 | 40151 ft | 449 kts | 197° |
| 2026-04-24 16:45 | 51.32772 | 9.05040 | 40148 ft | 450 kts | 197° |
| 2026-04-24 16:45 | 51.26552 | 9.03580 | 40154 ft | 453 kts | 192° |
| 2026-04-24 16:46 | 51.20294 | 9.02352 | 40159 ft | 453 kts | 191° |
| 2026-04-24 16:46 | 51.14046 | 9.01111 | 40155 ft | 453 kts | 191° |
| 2026-04-24 16:47 | 51.07791 | 8.99868 | 40156 ft | 453 kts | 191° |
| 2026-04-24 16:47 | 51.01535 | 8.98627 | 40158 ft | 453 kts | 191° |
| 2026-04-24 16:48 | 50.95263 | 8.97386 | 40162 ft | 453 kts | 191° |
| 2026-04-24 16:48 | 50.89013 | 8.96153 | 40165 ft | 453 kts | 191° |
| 2026-04-24 16:49 | 50.82799 | 8.94931 | 40165 ft | 452 kts | 191° |
| 2026-04-24 16:49 | 50.76551 | 8.93706 | 40159 ft | 452 kts | 191° |
| 2026-04-24 16:50 | 50.70307 | 8.92484 | 40154 ft | 452 kts | 191° |
| 2026-04-24 16:50 | 50.64060 | 8.91265 | 40155 ft | 452 kts | 191° |
| 2026-04-24 16:51 | 50.57815 | 8.90050 | 40152 ft | 452 kts | 191° |
| 2026-04-24 16:51 | 50.51569 | 8.88837 | 40151 ft | 452 kts | 191° |
| 2026-04-24 16:52 | 50.45329 | 8.87629 | 40151 ft | 452 kts | 191° |
| 2026-04-24 16:52 | 50.39089 | 8.86426 | 40145 ft | 452 kts | 191° |
| 2026-04-24 16:53 | 50.32854 | 8.85225 | 40143 ft | 452 kts | 191° |
| 2026-04-24 16:53 | 50.26623 | 8.84027 | 40141 ft | 451 kts | 191° |
| 2026-04-24 16:54 | 50.20384 | 8.82834 | 40138 ft | 451 kts | 191° |
| 2026-04-24 16:54 | 50.14148 | 8.81643 | 40135 ft | 451 kts | 191° |
| 2026-04-24 16:55 | 50.07912 | 8.80455 | 40124 ft | 451 kts | 191° |
| 2026-04-24 16:55 | 50.01687 | 8.79235 | 40131 ft | 451 kts | 191° |
| 2026-04-24 16:56 | 49.95468 | 8.77921 | 40131 ft | 451 kts | 191° |
| 2026-04-24 16:56 | 49.90303 | 8.76838 | 40140 ft | 451 kts | 191° |
| 2026-04-24 16:57 | 49.83079 | 8.75338 | 40141 ft | 451 kts | 191° |
| 2026-04-24 16:57 | 49.77861 | 8.74261 | 40141 ft | 451 kts | 191° |
| 2026-04-24 16:58 | 49.70626 | 8.72772 | 40148 ft | 451 kts | 191° |
| 2026-04-24 16:58 | 49.65412 | 8.71711 | 40152 ft | 451 kts | 191° |
| 2026-04-24 16:59 | 49.59178 | 8.70455 | 40151 ft | 451 kts | 191° |
| 2026-04-24 17:00 | 49.49835 | 8.68578 | 40151 ft | 452 kts | 191° |
| 2026-04-24 17:00 | 49.40483 | 8.66694 | 40154 ft | 452 kts | 190° |
| 2026-04-24 17:01 | 49.31137 | 8.64801 | 40152 ft | 452 kts | 190° |
| 2026-04-24 17:02 | 49.21794 | 8.62921 | 40144 ft | 452 kts | 190° |
| 2026-04-24 17:02 | 49.15597 | 8.61676 | 40140 ft | 452 kts | 190° |
| 2026-04-24 17:03 | 49.06245 | 8.59807 | 40144 ft | 452 kts | 190° |
| 2026-04-24 17:04 | 49.00001 | 8.58560 | 40150 ft | 452 kts | 190° |
| 2026-04-24 17:04 | 48.90791 | 8.55669 | 40151 ft | 451 kts | 194° |
| 2026-04-24 17:05 | 48.84657 | 8.53677 | 40153 ft | 451 kts | 194° |
| 2026-04-24 17:06 | 48.75456 | 8.50711 | 40146 ft | 451 kts | 194° |
| 2026-04-24 17:06 | 48.66248 | 8.47754 | 40162 ft | 451 kts | 194° |
| 2026-04-24 17:07 | 48.60099 | 8.45785 | 40156 ft | 451 kts | 194° |
| 2026-04-24 17:08 | 48.47813 | 8.41867 | 40141 ft | 451 kts | 194° |
| 2026-04-24 17:08 | 48.41673 | 8.39916 | 40143 ft | 451 kts | 194° |
| 2026-04-24 17:09 | 48.29365 | 8.36018 | 40160 ft | 452 kts | 193° |
| 2026-04-24 17:10 | 48.17240 | 8.31260 | 40156 ft | 449 kts | 204° |
| 2026-04-24 17:12 | 47.96015 | 8.11901 | 40150 ft | 448 kts | 213° |
| 2026-04-24 18:54 | 39.54847 | 2.73859 | 36 ft | 0 kts | 268° |